Time;durP1;ratioP1;P1;durP2;ratioP2;P2;SDS_P1;SDS_P2;PMS_P1;PMS_P2;Temp;Humidity;BMP_temperature;BMP_pressure;BME280_temperature;BME280_humidity;BME280_pressure;Samples;Min_cycle;Max_cycle;Signal;HPM_P1;HPM_P2
2023/06/16 00:01:31;;;;;;;8.65;4.07;;;16.20;99.90;;;;;;6273584;22;20008;-87
2023/06/16 00:03:58;;;;;;;7.25;3.65;;;16.20;99.90;;;;;;6222649;22;20012;-87
2023/06/16 00:06:27;;;;;;;6.45;3.10;;;16.20;99.90;;;;;;6249769;22;20015;-91
2023/06/16 00:08:54;;;;;;;6.35;3.40;;;16.20;99.90;;;;;;6249927;22;20447;-88
2023/06/16 00:11:21;;;;;;;7.53;3.80;;;16.10;99.90;;;;;;6249257;22;20015;-86
2023/06/16 00:13:49;;;;;;;7.03;3.47;;;16.00;99.90;;;;;;6248961;22;20014;-85
2023/06/16 00:16:19;;;;;;;5.32;3.20;;;16.00;99.90;;;;;;6223563;22;20015;-87
2023/06/16 00:18:46;;;;;;;5.90;3.40;;;16.00;99.90;;;;;;6224085;22;20022;-86
2023/06/16 00:21:19;;;;;;;6.65;3.60;;;16.00;99.90;;;;;;6223645;22;20503;-86
2023/06/16 00:23:48;;;;;;;6.63;3.80;;;16.10;99.90;;;;;;6223665;22;20011;-85
2023/06/16 00:26:13;;;;;;;6.05;3.35;;;16.00;99.90;;;;;;6250600;22;20015;-86
2023/06/16 00:28:40;;;;;;;8.02;3.67;;;15.90;99.90;;;;;;6300544;22;20023;-87
2023/06/16 00:31:06;;;;;;;7.18;3.53;;;15.90;99.90;;;;;;6274591;22;20019;-87
2023/06/16 00:33:32;;;;;;;5.95;3.45;;;16.00;99.90;;;;;;6248894;22;20004;-85
2023/06/16 00:35:57;;;;;;;6.28;3.70;;;16.00;99.90;;;;;;6300281;22;20365;-84
2023/06/16 00:38:23;;;;;;;7.13;3.63;;;16.00;99.90;;;;;;6249317;22;20034;-85
2023/06/16 00:40:48;;;;;;;6.75;3.10;;;16.00;99.90;;;;;;6299975;22;20057;-84
2023/06/16 00:43:14;;;;;;;6.00;3.30;;;16.00;99.90;;;;;;6273023;22;20093;-84
2023/06/16 00:45:40;;;;;;;7.25;2.90;;;15.90;99.90;;;;;;6271769;22;20104;-83
2023/06/16 00:48:06;;;;;;;5.75;3.35;;;15.90;99.90;;;;;;6215734;22;20020;-85
2023/06/16 00:50:32;;;;;;;7.05;3.03;;;15.90;99.90;;;;;;6233925;22;20012;-83
2023/06/16 00:52:58;;;;;;;5.93;2.88;;;15.80;99.90;;;;;;6235923;22;20043;-86
2023/06/16 00:55:23;;;;;;;6.38;2.88;;;15.80;99.90;;;;;;6263440;22;20074;-88
2023/06/16 00:57:51;;;;;;;5.32;2.95;;;15.70;99.90;;;;;;6237863;22;20361;-88
2023/06/16 01:00:17;;;;;;;5.40;3.00;;;15.70;99.90;;;;;;6216727;22;20020;-86
2023/06/16 01:02:46;;;;;;;7.30;3.10;;;15.50;99.90;;;;;;6212043;22;20058;-86
2023/06/16 01:05:16;;;;;;;5.57;2.85;;;15.50;99.90;;;;;;6263610;22;20011;-87
2023/06/16 01:08:05;;;;;;;5.88;2.80;;;15.40;99.90;;;;;;6236946;22;20020;-86
2023/06/16 01:10:51;;;;;;;5.70;3.33;;;15.40;99.90;;;;;;6214721;22;20016;-86
2023/06/16 01:13:42;;;;;;;6.95;3.60;;;15.30;99.90;;;;;;6291194;22;20073;-86
2023/06/16 01:16:10;;;;;;;7.43;3.60;;;15.20;99.90;;;;;;6224954;22;20007;-86
2023/06/16 01:18:43;;;;;;;8.70;3.55;;;15.20;99.90;;;;;;6224963;22;20039;-85
2023/06/16 01:21:37;;;;;;;12.35;3.90;;;15.10;99.90;;;;;;6276343;22;20007;-85
2023/06/16 01:24:11;;;;;;;10.75;3.20;;;15.00;99.90;;;;;;6219499;22;20011;-84
2023/06/16 01:26:40;;;;;;;8.02;3.15;;;14.90;99.90;;;;;;6213941;22;20035;-84
2023/06/16 01:29:10;;;;;;;8.13;3.80;;;14.90;99.90;;;;;;6213016;22;20023;-84
2023/06/16 01:31:38;;;;;;;6.55;2.95;;;14.90;99.90;;;;;;6212985;22;20102;-87
2023/06/16 01:34:06;;;;;;;6.43;3.63;;;14.80;99.90;;;;;;6238670;22;20012;-86
2023/06/16 01:36:33;;;;;;;9.30;3.58;;;14.80;99.90;;;;;;6238048;22;20402;-85
2023/06/16 01:39:00;;;;;;;7.38;3.00;;;14.70;99.90;;;;;;6212923;22;20012;-85
2023/06/16 01:41:27;;;;;;;3.80;2.40;;;14.80;99.90;;;;;;6213091;22;20529;-84
2023/06/16 01:43:53;;;;;;;7.95;2.67;;;14.70;99.90;;;;;;6241259;22;20385;-85
2023/06/16 01:46:20;;;;;;;6.68;2.90;;;14.80;99.90;;;;;;6224153;22;20016;-86
2023/06/16 01:48:46;;;;;;;5.40;3.17;;;14.70;99.90;;;;;;6225268;22;20015;-86
2023/06/16 01:51:12;;;;;;;6.05;3.00;;;14.70;99.90;;;;;;6275292;22;20008;-84
2023/06/16 01:53:38;;;;;;;8.35;2.78;;;14.60;99.90;;;;;;6250533;22;20034;-84
2023/06/16 01:56:10;;;;;;;5.55;3.22;;;14.60;99.90;;;;;;6275585;22;20011;-85
2023/06/16 01:58:36;;;;;;;6.40;3.10;;;14.50;99.90;;;;;;6249870;22;20047;-85
2023/06/16 02:01:08;;;;;;;7.65;3.60;;;14.50;99.90;;;;;;6216822;22;20023;-85
2023/06/16 02:03:40;;;;;;;5.30;3.25;;;14.50;99.90;;;;;;6215028;22;20054;-84
2023/06/16 02:06:17;;;;;;;7.75;3.53;;;14.40;99.90;;;;;;6212178;22;20366;-87
2023/06/16 02:08:44;;;;;;;6.28;3.83;;;14.40;99.90;;;;;;6213808;22;20015;-86
2023/06/16 02:11:11;;;;;;;6.47;3.75;;;14.40;99.90;;;;;;6214733;22;20015;-86
2023/06/16 02:13:37;;;;;;;6.20;3.42;;;14.40;99.90;;;;;;6263937;22;20488;-87
2023/06/16 02:16:03;;;;;;;6.40;3.83;;;14.30;99.90;;;;;;6222646;22;20019;-84
2023/06/16 02:18:32;;;;;;;6.85;3.95;;;14.30;99.90;;;;;;6213590;22;20015;-84
2023/06/16 02:20:58;;;;;;;6.03;3.90;;;14.30;99.90;;;;;;6261697;22;20484;-85
2023/06/16 02:23:24;;;;;;;8.15;3.20;;;14.20;99.90;;;;;;6237608;22;20027;-85
2023/06/16 02:25:50;;;;;;;6.63;3.63;;;14.20;99.90;;;;;;6212555;22;20090;-85
2023/06/16 02:28:16;;;;;;;5.18;2.92;;;14.20;99.90;;;;;;6263444;22;20098;-85
2023/06/16 02:30:42;;;;;;;5.60;2.92;;;14.10;99.90;;;;;;6211728;22;20022;-87
2023/06/16 02:33:08;;;;;;;4.53;2.50;;;14.10;99.90;;;;;;6288382;22;20042;-85
2023/06/16 02:35:33;;;;;;;5.45;3.55;;;14.10;99.90;;;;;;6268294;22;20069;-86
2023/06/16 02:38:00;;;;;;;6.72;3.90;;;14.00;99.90;;;;;;6274726;22;20457;-86
2023/06/16 02:40:25;;;;;;;6.40;4.10;;;14.00;99.90;;;;;;6266738;22;20011;-84
2023/06/16 02:42:51;;;;;;;6.53;3.60;;;14.00;99.90;;;;;;6266533;22;20541;-84
2023/06/16 02:45:16;;;;;;;6.75;4.00;;;13.90;99.90;;;;;;6273547;22;20023;-84
2023/06/16 02:47:42;;;;;;;7.05;4.28;;;13.90;99.90;;;;;;6250104;22;20019;-84
2023/06/16 02:50:08;;;;;;;5.63;3.30;;;13.90;99.90;;;;;;6220699;22;20051;-85
2023/06/16 02:52:35;;;;;;;5.85;3.65;;;13.90;99.90;;;;;;6237462;22;20428;-85
2023/06/16 02:55:01;;;;;;;5.75;3.42;;;13.90;99.90;;;;;;6239019;22;20007;-85
2023/06/16 02:57:27;;;;;;;4.70;2.70;;;13.90;99.90;;;;;;6212932;22;20462;-85
2023/06/16 02:59:55;;;;;;;4.50;2.78;;;13.80;99.90;;;;;;6219267;22;20008;-85
2023/06/16 03:02:20;;;;;;;4.95;2.92;;;13.70;99.90;;;;;;6274826;22;20018;-86
2023/06/16 03:04:46;;;;;;;5.15;3.10;;;13.60;99.90;;;;;;6274738;22;20396;-85
2023/06/16 03:07:12;;;;;;;5.28;3.00;;;13.70;99.90;;;;;;6300702;22;20019;-86
2023/06/16 03:09:37;;;;;;;5.20;2.97;;;13.80;99.90;;;;;;6238489;22;20085;-84
2023/06/16 03:12:04;;;;;;;8.10;4.53;;;13.60;99.90;;;;;;6237700;22;20442;-84
2023/06/16 03:14:29;;;;;;;8.15;5.35;;;13.60;99.90;;;;;;6237831;22;20012;-84
2023/06/16 03:16:55;;;;;;;6.82;4.60;;;13.60;99.90;;;;;;6211946;22;20019;-83
2023/06/16 03:19:20;;;;;;;7.35;4.40;;;13.60;99.90;;;;;;6267551;22;20027;-84
2023/06/16 03:21:48;;;;;;;7.32;4.97;;;13.50;99.90;;;;;;6262356;22;20353;-85
2023/06/16 03:24:16;;;;;;;10.13;7.10;;;13.50;99.90;;;;;;6211832;22;20047;-85
2023/06/16 03:26:43;;;;;;;10.23;7.10;;;13.40;99.90;;;;;;6237015;22;20106;-85
2023/06/16 03:29:09;;;;;;;8.65;5.85;;;13.30;99.90;;;;;;6239374;22;20011;-85
2023/06/16 03:31:35;;;;;;;7.20;4.13;;;13.30;99.90;;;;;;6263285;22;20023;-85
2023/06/16 03:34:01;;;;;;;8.57;4.93;;;13.30;99.90;;;;;;6236964;22;20007;-83
2023/06/16 03:36:27;;;;;;;8.38;5.07;;;13.30;99.90;;;;;;6210620;22;20543;-84
2023/06/16 03:38:53;;;;;;;7.85;5.55;;;13.30;99.90;;;;;;6213705;22;20053;-83
2023/06/16 03:41:18;;;;;;;8.95;5.50;;;13.30;99.90;;;;;;6288146;22;20053;-85
2023/06/16 03:43:44;;;;;;;8.13;5.57;;;13.30;99.90;;;;;;6290583;22;20026;-86
2023/06/16 03:46:09;;;;;;;8.80;6.18;;;13.30;99.90;;;;;;6218258;22;20323;-86
2023/06/16 03:48:35;;;;;;;8.82;6.55;;;13.30;99.90;;;;;;6239346;22;20015;-85
2023/06/16 03:51:01;;;;;;;9.68;7.18;;;13.30;99.90;;;;;;6265142;22;20026;-86
2023/06/16 03:53:27;;;;;;;9.63;7.22;;;13.30;99.90;;;;;;6287804;22;20023;-85
2023/06/16 03:55:52;;;;;;;10.18;6.30;;;13.30;99.90;;;;;;6211695;22;20469;-86
2023/06/16 03:58:18;;;;;;;9.88;7.30;;;13.30;99.90;;;;;;6263677;22;20038;-85
2023/06/16 04:00:44;;;;;;;9.38;7.35;;;13.40;99.90;;;;;;6288940;22;20065;-85
2023/06/16 04:03:11;;;;;;;9.95;7.50;;;13.30;99.90;;;;;;6239222;22;20008;-86
2023/06/16 04:05:37;;;;;;;9.45;6.95;;;13.30;99.90;;;;;;6213869;22;20011;-85
2023/06/16 04:08:03;;;;;;;9.50;6.93;;;13.30;99.90;;;;;;6236834;22;20058;-84
2023/06/16 04:10:29;;;;;;;9.50;6.75;;;13.30;99.90;;;;;;6261690;22;20385;-85
2023/06/16 04:12:55;;;;;;;10.40;7.22;;;13.30;99.90;;;;;;6238338;22;20050;-85
2023/06/16 04:15:20;;;;;;;12.57;6.93;;;13.30;99.90;;;;;;6287385;22;20395;-86
2023/06/16 04:17:46;;;;;;;9.93;7.55;;;13.40;99.90;;;;;;6213136;22;20191;-84
2023/06/16 04:20:12;;;;;;;13.40;9.23;;;13.40;99.90;;;;;;6215125;22;20051;-84
2023/06/16 04:22:38;;;;;;;11.93;10.27;;;13.40;99.90;;;;;;6288123;22;20037;-84
2023/06/16 04:25:05;;;;;;;12.88;9.98;;;13.40;99.90;;;;;;6236226;22;20069;-85
2023/06/16 04:27:31;;;;;;;12.77;9.50;;;13.40;99.90;;;;;;6212389;22;20058;-85
2023/06/16 04:29:58;;;;;;;13.02;11.27;;;13.50;99.90;;;;;;6261854;22;20012;-85
2023/06/16 04:32:23;;;;;;;12.27;9.88;;;13.50;99.90;;;;;;6211339;22;20090;-86
2023/06/16 04:34:49;;;;;;;11.75;9.07;;;13.60;99.90;;;;;;6286832;22;20102;-85
2023/06/16 04:37:16;;;;;;;11.68;9.65;;;13.60;99.90;;;;;;6211827;22;20015;-83
2023/06/16 04:39:42;;;;;;;13.48;11.48;;;13.80;99.90;;;;;;6215250;22;20008;-85
2023/06/16 04:42:09;;;;;;;14.23;12.02;;;13.80;99.90;;;;;;6211837;22;20011;-86
2023/06/16 04:44:35;;;;;;;15.45;12.98;;;13.90;99.90;;;;;;6217357;22;20012;-84
2023/06/16 04:47:01;;;;;;;13.48;11.93;;;13.90;99.90;;;;;;6240382;22;20047;-84
2023/06/16 04:49:27;;;;;;;16.20;11.23;;;14.00;99.90;;;;;;6217291;22;20871;-84
2023/06/16 04:51:53;;;;;;;14.38;12.05;;;14.10;99.90;;;;;;6248713;22;20008;-85
2023/06/16 04:54:19;;;;;;;14.40;11.07;;;14.10;99.90;;;;;;6212898;22;20389;-85
2023/06/16 04:56:45;;;;;;;16.92;13.25;;;14.20;99.90;;;;;;6238985;22;20023;-84
2023/06/16 04:59:11;;;;;;;16.50;13.68;;;14.30;99.90;;;;;;6213609;22;20428;-85
2023/06/16 05:01:37;;;;;;;14.23;12.73;;;14.20;99.90;;;;;;6213184;22;20022;-86
2023/06/16 05:04:03;;;;;;;19.67;14.75;;;14.40;99.90;;;;;;6214837;22;20015;-85
2023/06/16 05:06:33;;;;;;;14.95;13.30;;;14.40;99.90;;;;;;6212781;22;20403;-85
2023/06/16 05:08:59;;;;;;;17.63;14.13;;;14.50;99.90;;;;;;6238658;22;20024;-85
2023/06/16 05:11:24;;;;;;;18.05;14.88;;;14.50;99.90;;;;;;6214196;22;20442;-85
2023/06/16 05:13:50;;;;;;;19.05;14.93;;;14.60;99.90;;;;;;6213246;22;20064;-85
2023/06/16 05:16:16;;;;;;;18.25;15.15;;;14.70;99.90;;;;;;6241660;22;20444;-84
2023/06/16 05:18:41;;;;;;;17.40;14.18;;;14.80;99.90;;;;;;6215994;22;20012;-84
2023/06/16 05:21:07;;;;;;;18.67;16.13;;;14.80;99.90;;;;;;6238334;22;20015;-85
2023/06/16 05:23:33;;;;;;;17.60;15.60;;;14.90;99.90;;;;;;6213050;22;20019;-85
2023/06/16 05:25:58;;;;;;;15.57;13.23;;;14.90;99.90;;;;;;6212947;22;20420;-85
2023/06/16 05:28:24;;;;;;;17.08;14.38;;;15.10;99.90;;;;;;6214111;22;20066;-84
2023/06/16 05:30:49;;;;;;;18.02;14.88;;;15.20;99.90;;;;;;6238137;22;20042;-85
2023/06/16 05:33:15;;;;;;;17.80;14.50;;;15.40;99.90;;;;;;6214711;22;20054;-86
2023/06/16 05:35:40;;;;;;;18.40;15.27;;;15.50;99.90;;;;;;6237644;22;20058;-85
2023/06/16 05:38:06;;;;;;;20.17;16.35;;;15.60;99.90;;;;;;6219178;22;20349;-85
2023/06/16 05:40:32;;;;;;;18.90;16.83;;;15.80;99.90;;;;;;6240857;22;20012;-85
2023/06/16 05:42:57;;;;;;;22.40;18.23;;;15.90;99.90;;;;;;6220299;22;20350;-85
2023/06/16 05:45:23;;;;;;;19.70;17.58;;;16.10;99.90;;;;;;6222804;22;20008;-85
2023/06/16 05:47:49;;;;;;;20.55;16.90;;;16.20;99.90;;;;;;6248917;22;20012;-85
2023/06/16 05:50:15;;;;;;;20.48;17.10;;;16.30;99.90;;;;;;6223935;22;20012;-85
2023/06/16 05:52:40;;;;;;;20.45;17.13;;;16.40;99.90;;;;;;6224235;22;20027;-85
2023/06/16 05:55:07;;;;;;;19.58;16.70;;;16.60;99.90;;;;;;6248496;22;20018;-85
2023/06/16 05:57:32;;;;;;;21.70;18.70;;;16.70;99.90;;;;;;6224275;22;20008;-85
2023/06/16 05:59:58;;;;;;;20.95;18.00;;;16.90;99.90;;;;;;6223152;22;20091;-85
2023/06/16 06:02:24;;;;;;;20.52;18.20;;;17.10;99.90;;;;;;6224249;22;20019;-85
2023/06/16 06:04:50;;;;;;;19.73;17.63;;;17.30;99.90;;;;;;6222960;22;20339;-80
2023/06/16 06:07:16;;;;;;;19.75;17.65;;;17.40;99.90;;;;;;6249183;22;20015;-82
2023/06/16 06:09:41;;;;;;;18.88;16.45;;;17.50;99.90;;;;;;6250438;22;20400;-81
2023/06/16 06:12:08;;;;;;;17.63;15.70;;;17.60;99.90;;;;;;6249525;22;20014;-81
2023/06/16 06:14:34;;;;;;;20.75;15.70;;;17.80;99.90;;;;;;6249296;22;20016;-81
2023/06/16 06:16:59;;;;;;;18.65;15.07;;;17.80;99.90;;;;;;6224511;22;20012;-81
2023/06/16 06:19:25;;;;;;;20.33;16.27;;;18.00;99.90;;;;;;6250179;22;20012;-81
2023/06/16 06:21:51;;;;;;;18.02;15.60;;;18.20;99.90;;;;;;6224546;22;20014;-81
2023/06/16 06:24:16;;;;;;;16.25;14.15;;;18.30;99.90;;;;;;6249635;22;20012;-80
2023/06/16 06:26:43;;;;;;;14.93;12.23;;;18.40;99.90;;;;;;6224375;22;20065;-80
2023/06/16 06:29:08;;;;;;;15.07;12.70;;;18.50;99.90;;;;;;6224271;22;20008;-80
2023/06/16 06:31:34;;;;;;;14.43;12.02;;;18.60;99.90;;;;;;6249491;22;20012;-80
2023/06/16 06:34:00;;;;;;;13.95;10.93;;;18.70;99.90;;;;;;6249976;22;20015;-81
2023/06/16 06:36:29;;;;;;;12.90;10.70;;;18.80;99.90;;;;;;6224507;22;20008;-80
2023/06/16 06:38:55;;;;;;;14.10;11.02;;;18.90;99.90;;;;;;6250090;22;20389;-80
2023/06/16 06:41:22;;;;;;;14.38;11.00;;;18.90;99.90;;;;;;6249314;22;20090;-80
2023/06/16 06:43:48;;;;;;;13.80;10.20;;;19.00;99.90;;;;;;6249424;22;20011;-80
2023/06/16 06:46:15;;;;;;;12.52;9.32;;;19.10;99.90;;;;;;6224894;22;20095;-80
2023/06/16 06:48:40;;;;;;;12.57;9.45;;;19.20;99.90;;;;;;6224035;22;20007;-80
2023/06/16 06:51:06;;;;;;;12.10;8.90;;;19.30;99.90;;;;;;6249454;22;20050;-80
2023/06/16 06:53:32;;;;;;;12.38;9.00;;;19.40;99.90;;;;;;6275077;22;20342;-80
2023/06/16 06:55:58;;;;;;;10.98;8.00;;;19.40;99.90;;;;;;6274825;22;20011;-80
2023/06/16 06:58:23;;;;;;;11.50;8.32;;;19.50;99.90;;;;;;6274325;22;20338;-81
2023/06/16 07:00:49;;;;;;;12.45;8.65;;;19.60;99.90;;;;;;6249655;22;20039;-80
2023/06/16 07:03:15;;;;;;;11.93;7.90;;;19.60;99.90;;;;;;6274533;22;20015;-80
2023/06/16 07:05:42;;;;;;;11.07;8.30;;;19.70;99.90;;;;;;6248283;22;20514;-81
2023/06/16 07:08:08;;;;;;;11.07;7.60;;;19.70;99.90;;;;;;6223786;22;20472;-80
2023/06/16 07:10:33;;;;;;;10.15;7.47;;;19.80;99.90;;;;;;6275143;22;20046;-80
2023/06/16 07:12:59;;;;;;;11.63;8.57;;;19.90;99.90;;;;;;6223829;22;20426;-81
2023/06/16 07:15:24;;;;;;;12.88;11.07;;;20.00;99.90;;;;;;6223584;22;20018;-81
2023/06/16 07:17:50;;;;;;;11.77;8.88;;;20.10;99.90;;;;;;6224267;22;20015;-81
2023/06/16 07:20:16;;;;;;;12.20;9.85;;;20.20;99.90;;;;;;6249146;22;20012;-81
2023/06/16 07:22:45;;;;;;;13.45;9.85;;;20.30;99.90;;;;;;6300158;22;20329;-81
2023/06/16 07:25:11;;;;;;;14.13;10.10;;;20.30;99.90;;;;;;6248590;22;20042;-81
2023/06/16 07:27:36;;;;;;;11.75;8.32;;;20.40;99.90;;;;;;6223378;22;20012;-81
2023/06/16 07:30:04;;;;;;;10.20;7.20;;;20.50;99.90;;;;;;6248944;22;20091;-81
2023/06/16 07:32:30;;;;;;;10.82;7.40;;;20.60;99.90;;;;;;6223700;22;20007;-81
2023/06/16 07:34:56;;;;;;;11.15;7.28;;;20.70;99.90;;;;;;6273645;22;20030;-81
2023/06/16 07:37:22;;;;;;;11.30;7.43;;;20.80;99.90;;;;;;6248907;22;20011;-81
2023/06/16 07:39:47;;;;;;;11.65;7.20;;;20.80;99.90;;;;;;6298880;22;20011;-81
2023/06/16 07:42:13;;;;;;;9.98;6.20;;;20.80;99.90;;;;;;6272745;22;20012;-82
2023/06/16 07:44:38;;;;;;;9.73;6.20;;;20.90;99.90;;;;;;6248692;22;20008;-80
2023/06/16 07:47:05;;;;;;;10.13;6.15;;;21.10;99.90;;;;;;6223584;22;20098;-81
2023/06/16 07:49:30;;;;;;;10.68;6.90;;;21.10;99.90;;;;;;6247603;22;20011;-80
2023/06/16 07:51:56;;;;;;;10.18;7.40;;;21.20;99.90;;;;;;6248811;22;20419;-80
2023/06/16 07:54:21;;;;;;;9.45;7.15;;;21.40;99.90;;;;;;6248939;22;20008;-80
2023/06/16 07:56:48;;;;;;;9.63;6.68;;;21.50;99.90;;;;;;6222636;22;20095;-80
2023/06/16 07:59:13;;;;;;;10.15;6.15;;;21.50;99.90;;;;;;6222999;22;20045;-80
2023/06/16 08:01:42;;;;;;;9.63;6.82;;;21.60;99.90;;;;;;6223519;22;20018;-80
2023/06/16 08:04:08;;;;;;;13.07;6.97;;;21.80;99.90;;;;;;6246628;22;20062;-80
2023/06/16 08:06:33;;;;;;;9.77;6.40;;;21.80;99.90;;;;;;6222994;22;20024;-80
2023/06/16 08:08:59;;;;;;;9.95;6.05;;;21.90;99.90;;;;;;6223480;22;20019;-80
2023/06/16 08:11:24;;;;;;;8.27;6.25;;;21.90;99.90;;;;;;6217800;23;20560;-81
2023/06/16 08:13:50;;;;;;;10.25;7.65;;;22.00;99.90;;;;;;6216577;23;20008;-81
2023/06/16 08:16:16;;;;;;;9.18;6.80;;;22.10;99.90;;;;;;6247013;22;20012;-80
2023/06/16 08:18:42;;;;;;;9.32;6.78;;;22.20;99.90;;;;;;6302066;22;20066;-80
2023/06/16 08:21:08;;;;;;;11.38;6.72;;;22.30;99.90;;;;;;6250595;22;20012;-80
2023/06/16 08:23:33;;;;;;;9.18;7.07;;;22.30;99.90;;;;;;6275196;22;20384;-80
2023/06/16 08:26:01;;;;;;;8.68;6.97;;;22.40;99.90;;;;;;6276258;22;20007;-81
2023/06/16 08:28:27;;;;;;;9.23;6.53;;;22.40;99.90;;;;;;6275629;22;20041;-80
2023/06/16 08:30:53;;;;;;;10.07;6.60;;;22.50;99.90;;;;;;6250432;22;20008;-80
2023/06/16 08:33:20;;;;;;;10.18;6.60;;;22.50;99.90;;;;;;6223657;22;20035;-80
2023/06/16 08:35:45;;;;;;;10.18;6.90;;;22.70;99.90;;;;;;6250976;22;20338;-80
2023/06/16 08:38:11;;;;;;;9.55;6.45;;;22.60;99.90;;;;;;6275535;22;20023;-80
2023/06/16 08:40:37;;;;;;;9.50;5.47;;;22.70;99.90;;;;;;6276779;22;20022;-87
2023/06/16 08:43:06;;;;;;;8.32;5.72;;;22.80;99.90;;;;;;6223151;22;20015;-81
2023/06/16 08:45:35;;;;;;;8.07;5.38;;;22.90;99.90;;;;;;6223736;22;20015;-81
2023/06/16 08:48:00;;;;;;;8.38;5.30;;;22.90;99.90;;;;;;6224583;22;20011;-81
2023/06/16 08:50:26;;;;;;;9.68;5.30;;;23.00;99.90;;;;;;6301707;22;20012;-80
2023/06/16 08:52:57;;;;;;;8.40;5.40;;;23.00;99.90;;;;;;6225220;22;20030;-82
2023/06/16 08:55:23;;;;;;;7.80;5.40;;;23.20;99.90;;;;;;6224546;22;20015;-82
2023/06/16 08:57:53;;;;;;;8.38;4.80;;;23.10;99.90;;;;;;6250287;22;20481;-80
2023/06/16 09:00:23;;;;;;;7.78;4.78;;;23.10;99.90;;;;;;6250448;22;20023;-82
2023/06/16 09:02:53;;;;;;;8.50;5.20;;;23.30;99.90;;;;;;6225178;22;20078;-80
2023/06/16 09:05:19;;;;;;;8.43;4.90;;;23.30;99.90;;;;;;6224369;22;20206;-82
2023/06/16 09:07:45;;;;;;;6.95;4.03;;;23.40;99.90;;;;;;6249490;22;20460;-81
2023/06/16 09:10:11;;;;;;;7.32;4.05;;;23.40;99.90;;;;;;6250723;22;20008;-80
2023/06/16 09:12:36;;;;;;;6.85;4.05;;;23.50;99.90;;;;;;6274947;22;20008;-81
2023/06/16 09:15:08;;;;;;;7.15;4.00;;;23.40;96.30;;;;;;6274017;22;20505;-81
2023/06/16 09:17:34;;;;;;;5.70;3.63;;;23.40;95.10;;;;;;6250349;22;20015;-82
2023/06/16 09:20:01;;;;;;;6.35;3.30;;;23.50;96.30;;;;;;6275034;22;20438;-81
2023/06/16 09:22:28;;;;;;;7.15;3.78;;;23.50;95.20;;;;;;6249604;22;20350;-81
2023/06/16 09:25:04;;;;;;;6.07;3.30;;;23.60;95.20;;;;;;6249873;22;20077;-82
2023/06/16 09:27:50;;;;;;;6.53;3.22;;;23.60;94.30;;;;;;6249119;22;20008;-81
2023/06/16 09:30:18;;;;;;;6.65;3.65;;;23.60;93.50;;;;;;6224458;22;20102;-81
2023/06/16 09:32:48;;;;;;;7.05;3.22;;;23.70;92.70;;;;;;6250178;22;20029;-81
2023/06/16 09:35:19;;;;;;;5.28;2.88;;;23.80;91.20;;;;;;6249729;22;20053;-82
2023/06/16 09:37:50;;;;;;;6.97;3.30;;;23.80;91.20;;;;;;6223639;22;20090;-81
2023/06/16 09:40:16;;;;;;;5.93;3.15;;;23.70;88.50;;;;;;6224206;22;20016;-81
2023/06/16 09:42:43;;;;;;;5.68;3.03;;;23.60;89.60;;;;;;6224999;22;20086;-81
2023/06/16 09:45:14;;;;;;;6.53;3.50;;;23.70;90.00;;;;;;6223272;22;20016;-81
2023/06/16 09:47:45;;;;;;;5.03;3.05;;;23.70;87.10;;;;;;6224098;22;20011;-81
2023/06/16 09:50:17;;;;;;;5.57;2.80;;;23.70;86.90;;;;;;6250444;22;20008;-81
2023/06/16 09:52:44;;;;;;;4.97;3.00;;;23.80;84.70;;;;;;6222966;22;20090;-81
2023/06/16 09:55:14;;;;;;;5.95;3.50;;;23.80;87.40;;;;;;6220379;22;20392;-81
2023/06/16 09:57:45;;;;;;;6.82;3.30;;;24.00;89.70;;;;;;6248501;22;20438;-82
2023/06/16 10:00:17;;;;;;;5.38;2.92;;;24.00;85.80;;;;;;6248684;22;20405;-80
2023/06/16 10:02:44;;;;;;;6.10;2.95;;;24.10;86.80;;;;;;6249577;22;20315;-80
2023/06/16 10:05:14;;;;;;;6.10;2.72;;;24.20;86.90;;;;;;6224153;22;20016;-79
2023/06/16 10:07:42;;;;;;;6.00;3.15;;;24.20;84.60;;;;;;6248540;22;20347;-80
2023/06/16 10:10:10;;;;;;;6.30;3.30;;;24.20;87.80;;;;;;6223922;22;20453;-80
2023/06/16 10:12:37;;;;;;;6.15;2.63;;;24.30;88.20;;;;;;6223599;22;20035;-81
2023/06/16 10:15:04;;;;;;;5.55;3.28;;;24.30;89.10;;;;;;6223305;22;20513;-81
2023/06/16 10:17:32;;;;;;;4.78;2.83;;;24.30;88.40;;;;;;6248914;22;20018;-81
2023/06/16 10:19:58;;;;;;;6.43;3.50;;;24.30;86.70;;;;;;6249181;22;20003;-79
2023/06/16 10:22:24;;;;;;;6.22;3.03;;;24.20;84.60;;;;;;6249255;22;20019;-79
2023/06/16 10:24:51;;;;;;;8.00;3.00;;;24.20;83.50;;;;;;6224137;22;20007;-81
2023/06/16 10:27:17;;;;;;;5.55;3.35;;;24.20;84.00;;;;;;6223221;22;20022;-81
2023/06/16 10:29:46;;;;;;;4.82;3.00;;;24.30;83.80;;;;;;6249049;22;20019;-81
2023/06/16 10:32:12;;;;;;;7.60;3.38;;;24.30;84.20;;;;;;6223241;22;20019;-79
2023/06/16 10:34:49;;;;;;;6.53;3.20;;;24.40;85.40;;;;;;6223287;22;20008;-81
2023/06/16 10:37:16;;;;;;;5.20;3.15;;;24.40;85.70;;;;;;6222484;22;20012;-80
2023/06/16 10:39:47;;;;;;;7.97;3.38;;;24.50;84.00;;;;;;6248286;22;20346;-80
2023/06/16 10:42:14;;;;;;;;;;;24.60;86.30;;;;;;6223579;22;20450;-80
2023/06/16 10:44:42;;;;;;;8.27;3.30;;;24.60;83.20;;;;;;6223977;22;19962;-80
2023/06/16 10:47:24;;;;;;;5.47;3.10;;;24.60;82.70;;;;;;6248614;22;20012;-80
2023/06/16 10:50:03;;;;;;;5.72;2.90;;;24.60;82.30;;;;;;6248581;22;20011;-81
2023/06/16 10:52:28;;;;;;;5.78;2.90;;;24.60;81.70;;;;;;6223895;22;20015;-80
2023/06/16 10:54:55;;;;;;;6.93;3.10;;;24.60;81.70;;;;;;6223938;22;20019;-81
2023/06/16 10:57:22;;;;;;;5.22;2.75;;;24.70;82.80;;;;;;6248454;22;20004;-80
2023/06/16 10:59:59;;;;;;;5.60;3.20;;;24.70;81.50;;;;;;6249080;22;20016;-80
2023/06/16 11:02:27;;;;;;;5.45;3.05;;;24.70;82.00;;;;;;6223901;22;20047;-81
2023/06/16 11:05:08;;;;;;;6.93;2.92;;;24.70;80.70;;;;;;6223601;22;20162;-81
2023/06/16 11:07:41;;;;;;;6.85;3.20;;;24.60;79.40;;;;;;6222832;22;20054;-82
2023/06/16 11:10:18;;;;;;;7.10;3.10;;;24.60;80.20;;;;;;6222677;22;20058;-81
2023/06/16 11:12:45;;;;;;;5.57;3.00;;;24.70;82.10;;;;;;6222814;22;20065;-81
2023/06/16 11:15:11;;;;;;;6.07;3.13;;;24.60;79.50;;;;;;6222986;22;20007;-82
2023/06/16 11:17:52;;;;;;;6.68;3.10;;;24.70;78.30;;;;;;6220899;22;20345;-83
2023/06/16 11:20:17;;;;;;;7.15;3.28;;;24.60;78.20;;;;;;6224404;22;20073;-80
2023/06/16 11:22:43;;;;;;;6.35;3.20;;;24.60;78.50;;;;;;6275246;22;20015;-80
2023/06/16 11:25:09;;;;;;;5.22;2.85;;;24.70;80.10;;;;;;6249311;22;20029;-80
2023/06/16 11:27:36;;;;;;;9.55;3.53;;;24.70;79.20;;;;;;6248945;22;20086;-80
2023/06/16 11:30:05;;;;;;;6.25;3.10;;;24.70;78.90;;;;;;6224078;22;20008;-83
2023/06/16 11:32:34;;;;;;;8.60;3.17;;;24.60;79.20;;;;;;6249280;22;20039;-80
2023/06/16 11:35:01;;;;;;;6.88;3.40;;;24.70;80.70;;;;;;6220073;22;20019;-80
2023/06/16 11:37:49;;;;;;;6.05;3.20;;;24.70;79.90;;;;;;6223648;22;20058;-82
2023/06/16 11:40:25;;;;;;;5.82;3.10;;;24.70;79.00;;;;;;6224405;22;20087;-82
2023/06/16 11:42:58;;;;;;;7.28;3.50;;;24.70;78.60;;;;;;6249188;22;20012;-81
2023/06/16 11:45:26;;;;;;;5.78;3.30;;;24.80;77.50;;;;;;6273806;22;20015;-81
2023/06/16 11:47:54;;;;;;;5.85;3.40;;;24.70;78.10;;;;;;6223547;22;20019;-82
2023/06/16 11:50:21;;;;;;;6.57;3.28;;;24.80;79.40;;;;;;6223527;22;20007;-82
2023/06/16 11:52:47;;;;;;;7.10;3.15;;;24.70;75.70;;;;;;6247423;22;20079;-81
2023/06/16 11:55:13;;;;;;;5.72;3.10;;;24.60;74.70;;;;;;6249564;22;20346;-82
2023/06/16 11:57:40;;;;;;;6.88;3.17;;;24.60;76.90;;;;;;6275087;22;20107;-80
2023/06/16 12:00:07;;;;;;;5.78;3.20;;;24.80;78.60;;;;;;6223600;22;20012;-81
2023/06/16 12:02:34;;;;;;;6.07;3.20;;;24.70;73.70;;;;;;6224180;22;20039;-81
2023/06/16 12:05:01;;;;;;;5.80;3.03;;;24.70;75.20;;;;;;6244571;22;20019;-81
2023/06/16 12:07:27;;;;;;;4.30;2.60;;;24.70;76.60;;;;;;6247184;22;20342;-81
2023/06/16 12:09:56;;;;;;;6.97;3.15;;;24.70;76.30;;;;;;6222267;22;20015;-81
2023/06/16 12:12:25;;;;;;;6.13;2.90;;;24.80;76.40;;;;;;6248318;22;20086;-81
2023/06/16 12:14:53;;;;;;;6.35;2.90;;;24.70;72.90;;;;;;6221945;22;20012;-81
2023/06/16 12:17:24;;;;;;;5.82;2.97;;;24.70;74.40;;;;;;6248235;22;20058;-81
2023/06/16 12:19:51;;;;;;;5.78;2.88;;;24.60;73.40;;;;;;6222093;22;20016;-81
2023/06/16 12:22:17;;;;;;;6.35;3.53;;;24.60;74.50;;;;;;6248527;22;20047;-81
2023/06/16 12:24:42;;;;;;;6.32;2.92;;;24.50;74.10;;;;;;6273110;22;20016;-81
2023/06/16 12:27:08;;;;;;;5.22;2.83;;;24.50;74.10;;;;;;6300197;22;20019;-81
2023/06/16 12:29:33;;;;;;;6.30;3.03;;;24.60;74.60;;;;;;6272642;22;20094;-81
2023/06/16 12:32:03;;;;;;;5.25;2.67;;;24.60;74.10;;;;;;6223067;22;20464;-81
2023/06/16 12:34:32;;;;;;;6.72;3.13;;;24.50;74.60;;;;;;6248135;22;20045;-81
2023/06/16 12:37:07;;;;;;;5.93;2.70;;;24.50;73.90;;;;;;6248517;22;20467;-81
2023/06/16 12:39:37;;;;;;;5.50;2.95;;;24.50;74.00;;;;;;6222949;22;20012;-81
2023/06/16 12:42:08;;;;;;;6.68;2.90;;;24.40;75.40;;;;;;6223297;22;20011;-81
2023/06/16 12:44:53;;;;;;;5.63;3.00;;;24.40;74.30;;;;;;6222520;22;20011;-81